createdAt,value
2023-01-01T00:02:18.731Z,9.53
2023-01-01T00:05:06.675Z,9.20
2023-01-01T00:07:53.773Z,9.47
2023-01-01T00:10:40.738Z,9.93
2023-01-01T00:13:28.177Z,10.40
2023-01-01T00:16:15.308Z,10.47
2023-01-01T00:19:02.870Z,10.70
2023-01-01T00:21:50.000Z,10.60
2023-01-01T00:24:36.968Z,9.90
2023-01-01T00:27:24.111Z,10.67
2023-01-01T00:30:11.664Z,10.77
2023-01-01T00:32:58.724Z,10.63
2023-01-01T00:35:45.757Z,10.67
2023-01-01T00:38:33.527Z,10.60
2023-01-01T00:41:21.175Z,10.13
2023-01-01T00:44:08.163Z,9.40
2023-01-01T00:46:55.296Z,9.57
2023-01-01T00:49:42.308Z,9.30
2023-01-01T00:52:29.350Z,9.77
2023-01-01T00:55:16.576Z,9.10
2023-01-01T00:58:03.673Z,8.93
2023-01-01T01:00:52.659Z,8.70
2023-01-01T01:03:40.093Z,9.17
2023-01-01T01:06:27.133Z,9.27
2023-01-01T01:09:14.205Z,10.87
2023-01-01T01:12:18.743Z,14.23
2023-01-01T01:15:07.218Z,18.33
2023-01-01T01:17:54.776Z,19.87
2023-01-01T01:20:49.960Z,16.00
2023-01-01T01:23:37.046Z,15.73
2023-01-01T01:26:26.989Z,19.07
2023-01-01T01:29:14.193Z,20.13
2023-01-01T01:32:01.228Z,16.70
2023-01-01T01:34:48.690Z,14.80
2023-01-01T01:37:35.689Z,13.83
2023-01-01T01:40:22.860Z,15.30
2023-01-01T01:43:24.921Z,18.07
2023-01-01T01:46:16.056Z,17.20
2023-01-01T01:49:15.935Z,19.27
2023-01-01T01:52:03.119Z,18.10
2023-01-01T01:54:50.666Z,17.00
2023-01-01T01:57:40.181Z,17.53
2023-01-01T02:00:27.280Z,17.93
2023-01-01T02:03:20.103Z,17.20
2023-01-01T02:06:07.463Z,17.80
2023-01-01T02:08:56.703Z,18.07
2023-01-01T02:11:43.686Z,16.60
2023-01-01T02:14:30.759Z,16.30
2023-01-01T02:17:39.018Z,16.20
2023-01-01T02:20:54.064Z,16.77
2023-01-01T02:23:55.293Z,17.13
2023-01-01T02:26:48.869Z,16.83
2023-01-01T02:29:52.820Z,16.80
2023-01-01T02:32:48.865Z,16.37
2023-01-01T02:35:48.758Z,17.43
2023-01-01T02:38:41.348Z,16.10
2023-01-01T02:41:38.631Z,15.27
2023-01-01T02:44:28.616Z,16.17
2023-01-01T02:47:18.977Z,15.97
2023-01-01T02:50:15.231Z,15.17
2023-01-01T02:53:12.756Z,15.20
2023-01-01T02:56:19.120Z,15.53
2023-01-01T02:59:43.067Z,15.33
2023-01-01T03:03:06.969Z,15.27
2023-01-01T03:06:24.912Z,16.53
2023-01-01T03:09:27.634Z,15.63
2023-01-01T03:12:43.796Z,15.97
2023-01-01T03:16:00.674Z,15.50
2023-01-01T03:19:10.464Z,15.20
2023-01-01T03:22:05.005Z,15.10
2023-01-01T03:24:56.280Z,14.63
2023-01-01T03:27:49.290Z,15.33
2023-01-01T03:30:39.794Z,13.77
2023-01-01T03:33:41.639Z,14.00
2023-01-01T03:36:35.417Z,13.03
2023-01-01T03:39:27.788Z,13.23
2023-01-01T03:42:39.606Z,13.67
2023-01-01T03:45:36.202Z,12.77
2023-01-01T03:48:23.286Z,11.77
2023-01-01T03:51:20.833Z,12.23
2023-01-01T03:54:32.772Z,13.37
2023-01-01T03:57:48.224Z,12.87
2023-01-01T04:00:46.650Z,13.40
2023-01-01T04:03:34.578Z,13.03
2023-01-01T04:06:21.697Z,12.30
2023-01-01T04:09:15.230Z,13.93
2023-01-01T04:12:06.705Z,13.10
2023-01-01T04:14:53.788Z,12.00
2023-01-01T04:17:40.815Z,12.80
2023-01-01T04:20:28.765Z,12.33
2023-01-01T04:23:15.772Z,12.30
2023-01-01T04:26:03.982Z,11.57
2023-01-01T04:28:51.097Z,12.03
2023-01-01T04:31:38.177Z,12.13
2023-01-01T04:34:25.191Z,13.23
2023-01-01T04:37:13.682Z,12.53
2023-01-01T04:40:00.790Z,13.00
2023-01-01T04:42:47.847Z,13.20
2023-01-01T04:45:34.872Z,12.97
2023-01-01T04:48:21.925Z,12.90
2023-01-01T04:51:10.827Z,11.27
2023-01-01T04:53:59.278Z,12.07
2023-01-01T04:56:46.314Z,11.47
2023-01-01T04:59:33.285Z,11.87
2023-01-01T05:02:20.306Z,10.77
2023-01-01T05:05:07.692Z,11.43
2023-01-01T05:07:54.714Z,11.80
2023-01-01T05:10:41.744Z,11.87
2023-01-01T05:13:28.877Z,11.67
2023-01-01T05:16:18.937Z,11.67
2023-01-01T05:19:06.981Z,11.23
2023-01-01T05:21:54.396Z,10.27
2023-01-01T05:24:41.462Z,10.30
2023-01-01T05:27:28.551Z,10.37
2023-01-01T05:30:15.580Z,10.97
2023-01-01T05:33:02.620Z,11.13
2023-01-01T05:35:54.820Z,11.03
2023-01-01T05:38:42.027Z,10.83
2023-01-01T05:41:31.080Z,10.13
2023-01-01T05:44:19.344Z,10.30
2023-01-01T05:47:06.356Z,10.57
2023-01-01T05:49:53.409Z,9.77
2023-01-01T05:52:40.435Z,10.10
2023-01-01T05:55:27.676Z,9.50
2023-01-01T05:58:14.734Z,10.10
2023-01-01T06:01:15.654Z,9.00
2023-01-01T06:04:02.787Z,9.60
2023-01-01T06:06:49.796Z,11.50
2023-01-01T06:09:36.765Z,11.30
2023-01-01T06:12:23.659Z,10.83
2023-01-01T06:15:10.795Z,10.17
2023-01-01T06:17:59.009Z,9.60
2023-01-01T06:20:45.962Z,11.20
2023-01-01T06:23:33.037Z,10.27
2023-01-01T06:26:26.289Z,12.07
2023-01-01T06:29:13.279Z,11.57
2023-01-01T06:32:00.384Z,11.73
2023-01-01T06:34:47.416Z,12.17
2023-01-01T06:37:34.349Z,12.97
2023-01-01T06:40:21.280Z,13.20
2023-01-01T06:43:08.199Z,13.40
2023-01-01T06:46:06.666Z,12.37
2023-01-01T06:48:56.524Z,14.43
2023-01-01T06:51:44.019Z,12.93
2023-01-01T06:54:31.057Z,13.43
2023-01-01T06:57:18.092Z,13.80
2023-01-01T07:00:05.842Z,13.07
2023-01-01T07:02:52.911Z,11.70
2023-01-01T07:05:40.039Z,12.30
2023-01-01T07:08:27.206Z,14.07
2023-01-01T07:11:14.305Z,18.57
2023-01-01T07:14:01.712Z,20.47
2023-01-01T07:16:48.761Z,22.33
2023-01-01T07:19:35.775Z,18.43
2023-01-01T07:22:22.742Z,18.83
2023-01-01T07:25:14.572Z,21.10
2023-01-01T07:28:01.537Z,19.23
2023-01-01T07:30:49.175Z,20.10
2023-01-01T07:33:36.220Z,19.63
2023-01-01T07:36:23.205Z,18.17
2023-01-01T07:39:10.311Z,20.50
2023-01-01T07:41:57.344Z,30.00
2023-01-01T07:44:44.271Z,28.10
2023-01-01T07:47:31.285Z,28.50
2023-01-01T07:50:18.980Z,24.50
2023-01-01T07:53:06.049Z,28.03
2023-01-01T07:55:53.128Z,28.43
2023-01-01T07:58:40.921Z,28.00
2023-01-01T08:01:28.680Z,26.57
2023-01-01T08:04:15.637Z,30.20
2023-01-01T08:07:02.626Z,29.27
2023-01-01T08:09:49.618Z,29.30
2023-01-01T08:12:36.707Z,30.20
2023-01-01T08:15:23.739Z,30.97
2023-01-01T08:18:10.680Z,31.53
2023-01-01T08:20:57.728Z,31.30
2023-01-01T08:23:44.731Z,30.70
2023-01-01T08:26:34.126Z,27.40
2023-01-01T08:29:21.404Z,29.07
2023-01-01T08:32:08.799Z,28.73
2023-01-01T08:34:55.739Z,26.90
2023-01-01T08:37:42.654Z,27.07
2023-01-01T08:40:29.617Z,26.17
2023-01-01T08:43:16.530Z,27.27
2023-01-01T08:46:03.563Z,27.53
2023-01-01T08:48:50.571Z,25.73
2023-01-01T08:51:37.566Z,24.57
2023-01-01T08:54:26.078Z,25.70
2023-01-01T08:57:13.437Z,24.40
2023-01-01T09:00:00.325Z,24.03
2023-01-01T09:02:47.528Z,24.40
2023-01-01T09:05:34.561Z,23.70
2023-01-01T09:08:22.192Z,22.97
2023-01-01T09:11:21.865Z,22.57
2023-01-01T09:14:08.771Z,23.77
2023-01-01T09:16:55.709Z,22.90
2023-01-01T09:19:42.612Z,21.73
2023-01-01T09:22:29.521Z,20.40
2023-01-01T09:25:16.459Z,19.43
2023-01-01T09:28:06.252Z,18.77
2023-01-01T09:30:53.214Z,18.23
2023-01-01T09:33:40.536Z,17.90
2023-01-01T09:36:30.735Z,18.07
2023-01-01T09:39:17.804Z,16.50
2023-01-01T09:42:24.443Z,15.67
2023-01-01T09:45:22.482Z,15.23
2023-01-01T09:48:14.733Z,14.00
2023-01-01T09:51:05.176Z,14.40
2023-01-01T09:54:01.540Z,12.70
2023-01-01T09:56:59.005Z,12.50
2023-01-01T09:59:45.929Z,13.00
2023-01-01T10:02:41.740Z,12.30
2023-01-01T10:05:52.448Z,12.27
2023-01-01T10:09:04.929Z,11.33
2023-01-01T10:11:59.841Z,11.60
2023-01-01T10:14:55.191Z,10.90
2023-01-01T10:17:48.963Z,11.33
2023-01-01T10:20:47.438Z,10.80
2023-01-01T10:23:44.156Z,10.90
2023-01-01T10:26:34.144Z,9.90
2023-01-01T10:29:36.730Z,11.10
2023-01-01T10:32:30.896Z,12.27
2023-01-01T10:35:32.900Z,12.80
2023-01-01T10:38:25.224Z,11.50
2023-01-01T10:41:19.239Z,10.17
2023-01-01T10:44:07.849Z,10.33
2023-01-01T10:46:58.836Z,9.97
2023-01-01T10:50:00.917Z,9.47
2023-01-01T10:52:56.463Z,9.13
2023-01-01T10:55:49.123Z,8.40
2023-01-01T10:58:54.735Z,7.97
2023-01-01T11:01:41.859Z,7.83
2023-01-01T11:04:28.794Z,7.70
2023-01-01T11:07:25.632Z,7.60
2023-01-01T11:10:19.081Z,7.90
2023-01-01T11:13:19.064Z,7.40
2023-01-01T11:16:10.712Z,8.23
2023-01-01T11:19:07.008Z,7.93
2023-01-01T11:21:54.033Z,7.93
2023-01-01T11:24:41.135Z,7.50
2023-01-01T11:27:28.098Z,8.40
2023-01-01T11:30:25.742Z,8.17
2023-01-01T11:33:16.858Z,8.17
2023-01-01T11:36:05.796Z,7.47
2023-01-01T11:39:07.654Z,7.97
2023-01-01T11:41:57.458Z,7.10
2023-01-01T11:44:52.464Z,7.37
2023-01-01T11:47:41.562Z,6.97
2023-01-01T11:50:36.135Z,6.60
2023-01-01T11:53:22.943Z,6.90
2023-01-01T11:56:22.331Z,7.00
2023-01-01T11:59:17.573Z,7.37
2023-01-01T12:02:05.171Z,7.13
2023-01-01T12:05:03.501Z,7.07
2023-01-01T12:07:52.253Z,7.40
2023-01-01T12:10:55.494Z,6.60
2023-01-01T12:13:48.682Z,6.73
2023-01-01T12:16:48.144Z,7.27
2023-01-01T12:19:39.947Z,7.33
2023-01-01T12:22:27.025Z,7.27
2023-01-01T12:25:18.369Z,7.30
2023-01-01T12:28:20.361Z,6.67
2023-01-01T12:31:30.799Z,6.77
2023-01-01T12:34:43.805Z,6.67
2023-01-01T12:37:56.256Z,6.50
2023-01-01T12:40:58.969Z,6.80
2023-01-01T12:44:30.252Z,5.80
2023-01-01T12:47:38.633Z,5.67
2023-01-01T12:50:51.426Z,5.93
2023-01-01T12:54:09.676Z,6.13
2023-01-01T12:57:31.945Z,6.30
2023-01-01T13:00:20.743Z,6.67
2023-01-01T13:03:19.531Z,6.57
2023-01-01T13:06:10.695Z,6.33
2023-01-01T13:09:04.332Z,6.70
2023-01-01T13:11:56.469Z,8.00
2023-01-01T13:14:45.740Z,7.83
2023-01-01T13:17:32.731Z,8.97
2023-01-01T13:20:24.822Z,9.40
2023-01-01T13:23:29.708Z,9.67
2023-01-01T13:26:22.982Z,9.23
2023-01-01T13:29:13.156Z,8.87
2023-01-01T13:32:03.208Z,9.13
2023-01-01T13:35:01.200Z,8.97
2023-01-01T13:37:48.568Z,9.30
2023-01-01T13:40:50.057Z,9.03
2023-01-01T13:43:36.998Z,9.10
2023-01-01T13:46:51.849Z,9.70
2023-01-01T13:50:04.714Z,9.83
2023-01-01T13:53:27.381Z,9.23
2023-01-01T13:56:28.165Z,9.90
2023-01-01T13:59:45.098Z,9.50
2023-01-01T14:02:37.242Z,8.37
2023-01-01T14:05:37.087Z,8.23
2023-01-01T14:08:27.013Z,8.00
2023-01-01T14:11:23.988Z,7.53
2023-01-01T14:14:29.551Z,9.03
2023-01-01T14:17:17.257Z,9.60
2023-01-01T14:20:08.513Z,10.03
2023-01-01T14:22:55.544Z,9.53
2023-01-01T14:25:44.293Z,9.40
2023-01-01T14:28:33.916Z,10.57
2023-01-01T14:31:24.623Z,10.57
2023-01-01T14:34:21.130Z,12.00
2023-01-01T14:37:22.097Z,9.63
2023-01-01T14:40:29.165Z,11.30
2023-01-01T14:43:18.002Z,9.50
2023-01-01T14:46:11.087Z,9.40
2023-01-01T14:49:03.332Z,9.47
2023-01-01T14:51:57.350Z,8.80
2023-01-01T14:54:46.287Z,9.87
2023-01-01T14:57:35.838Z,9.37
2023-01-01T15:00:29.941Z,8.67
2023-01-01T15:03:22.233Z,8.53
2023-01-01T15:06:17.871Z,9.13
2023-01-01T15:09:04.820Z,9.43
2023-01-01T15:11:56.223Z,9.27
2023-01-01T15:14:45.574Z,9.43
2023-01-01T15:17:46.720Z,8.77
2023-01-01T15:20:36.082Z,10.30
2023-01-01T15:23:23.028Z,9.27
2023-01-01T15:26:15.826Z,9.03
2023-01-01T15:29:08.683Z,9.83
2023-01-01T15:32:04.215Z,9.47
2023-01-01T15:34:57.107Z,8.50
2023-01-01T15:37:51.286Z,8.57
2023-01-01T15:40:38.263Z,9.63
2023-01-01T15:43:29.546Z,10.53
2023-01-01T15:46:22.664Z,9.20
2023-01-01T15:49:28.653Z,8.13
2023-01-01T15:52:24.218Z,8.53
2023-01-01T15:55:15.754Z,7.70
2023-01-01T15:58:04.212Z,10.63
2023-01-01T16:01:00.469Z,9.20
2023-01-01T16:03:48.553Z,12.70
2023-01-01T16:06:44.126Z,12.70
2023-01-01T16:09:32.963Z,12.93
2023-01-01T16:12:20.606Z,16.00
2023-01-01T16:15:09.660Z,14.83
2023-01-01T16:17:56.693Z,11.43
2023-01-01T16:20:44.406Z,11.20
2023-01-01T16:23:31.590Z,12.43
2023-01-01T16:26:18.520Z,10.97
2023-01-01T16:29:05.430Z,11.10
2023-01-01T16:31:52.462Z,11.67
2023-01-01T16:34:39.381Z,11.33
2023-01-01T16:37:26.303Z,12.53
2023-01-01T16:40:13.360Z,13.20
2023-01-01T16:43:00.275Z,14.07
2023-01-01T16:45:47.259Z,14.70
2023-01-01T16:48:34.261Z,13.30
2023-01-01T16:51:24.312Z,11.97
2023-01-01T16:54:11.456Z,13.00
2023-01-01T16:56:58.400Z,11.97
2023-01-01T16:59:45.932Z,12.17
2023-01-01T17:02:33.037Z,12.30
2023-01-01T17:05:20.038Z,12.30
2023-01-01T17:08:07.423Z,13.27
2023-01-01T17:11:10.136Z,12.67
2023-01-01T17:13:59.799Z,11.60
2023-01-01T17:16:46.827Z,10.60
2023-01-01T17:19:33.791Z,10.90
2023-01-01T17:22:21.219Z,10.80
2023-01-01T17:25:08.642Z,11.23
2023-01-01T17:27:55.600Z,11.13
2023-01-01T17:30:42.570Z,10.97
2023-01-01T17:33:29.533Z,11.67
2023-01-01T17:36:17.214Z,12.10
2023-01-01T17:39:04.219Z,11.53
2023-01-01T17:41:51.157Z,10.97
2023-01-01T17:44:38.148Z,12.33
2023-01-01T17:47:30.754Z,12.83
2023-01-01T17:50:20.315Z,13.63
2023-01-01T17:53:13.833Z,17.20
2023-01-01T17:56:01.075Z,17.07
2023-01-01T17:58:49.510Z,16.77
2023-01-01T18:01:37.284Z,11.83
2023-01-01T18:04:24.489Z,13.60
2023-01-01T18:07:11.402Z,15.23
2023-01-01T18:09:58.368Z,13.80
2023-01-01T18:12:45.279Z,12.17
2023-01-01T18:15:35.893Z,10.83
2023-01-01T18:18:22.877Z,13.57
2023-01-01T18:21:21.964Z,15.57
2023-01-01T18:24:13.332Z,13.27
2023-01-01T18:27:00.233Z,11.70
2023-01-01T18:29:47.987Z,13.60
2023-01-01T18:32:35.010Z,12.57
2023-01-01T18:35:21.943Z,12.97
2023-01-01T18:38:13.082Z,12.70
2023-01-01T18:41:14.911Z,12.93
2023-01-01T18:44:02.353Z,12.00
2023-01-01T18:47:10.951Z,11.53
2023-01-01T18:50:15.637Z,11.83
2023-01-01T18:53:20.218Z,10.90
2023-01-01T18:56:14.441Z,11.33
2023-01-01T18:59:02.228Z,10.93
2023-01-01T19:01:49.403Z,11.00
2023-01-01T19:04:36.452Z,11.03
2023-01-01T19:07:23.391Z,10.03
2023-01-01T19:10:13.468Z,11.20
2023-01-01T19:13:03.061Z,11.40
2023-01-01T19:16:02.575Z,10.93
2023-01-01T19:18:50.406Z,10.40
2023-01-01T19:21:39.774Z,10.03
2023-01-01T19:24:30.384Z,10.87
2023-01-01T19:27:18.517Z,10.70
2023-01-01T19:30:23.184Z,10.20
2023-01-01T19:33:10.578Z,10.00
2023-01-01T19:35:58.547Z,10.53
2023-01-01T19:38:45.639Z,11.17
2023-01-01T19:41:32.687Z,12.10
2023-01-01T19:44:24.780Z,11.80
2023-01-01T19:47:12.292Z,10.67
2023-01-01T19:49:59.245Z,12.10
2023-01-01T19:52:47.414Z,12.83
2023-01-01T19:55:34.331Z,12.23
2023-01-01T19:58:22.892Z,12.00
2023-01-01T20:01:10.021Z,13.20
2023-01-01T20:03:58.830Z,11.97
2023-01-01T20:06:46.017Z,11.47
2023-01-01T20:09:33.295Z,12.67
2023-01-01T20:12:20.293Z,11.40
2023-01-01T20:15:07.677Z,11.57
2023-01-01T20:17:54.685Z,11.93
2023-01-01T20:21:01.650Z,11.67
2023-01-01T20:23:48.653Z,12.10
2023-01-01T20:26:35.583Z,12.40
2023-01-01T20:29:23.248Z,11.07
2023-01-01T20:32:13.872Z,11.90
2023-01-01T20:35:00.810Z,12.80
2023-01-01T20:37:47.853Z,13.43
2023-01-01T20:40:34.802Z,13.87
2023-01-01T20:43:21.729Z,11.57
2023-01-01T20:46:08.720Z,12.53
2023-01-01T20:48:59.457Z,12.67
2023-01-01T20:51:49.331Z,12.67
2023-01-01T20:54:36.383Z,11.93
2023-01-01T20:57:23.286Z,12.10
2023-01-01T21:00:10.708Z,11.00
2023-01-01T21:02:57.695Z,10.80
2023-01-01T21:05:44.791Z,11.77
2023-01-01T21:08:31.973Z,11.37
2023-01-01T21:11:19.014Z,11.33
2023-01-01T21:14:06.067Z,11.03
2023-01-01T21:16:53.179Z,10.43
2023-01-01T21:19:40.184Z,10.70
2023-01-01T21:22:27.632Z,11.13
2023-01-01T21:25:50.633Z,9.90
2023-01-01T21:28:33.385Z,10.20
2023-01-01T21:31:21.712Z,10.53
2023-01-01T21:34:34.417Z,10.20
2023-01-01T21:37:50.563Z,11.07
2023-01-01T21:40:40.891Z,10.50
2023-01-01T21:43:31.656Z,9.80
2023-01-01T21:46:44.328Z,10.33
2023-01-01T21:49:36.690Z,10.90
2023-01-01T21:52:25.421Z,10.83
2023-01-01T21:55:24.955Z,10.37
2023-01-01T21:58:33.429Z,10.93
2023-01-01T22:01:29.776Z,10.60
2023-01-01T22:04:30.913Z,9.27
2023-01-01T22:10:40.610Z,10.20
2023-01-01T22:13:28.477Z,9.33
2023-01-01T22:16:15.961Z,9.47
2023-01-01T22:19:12.076Z,9.73
2023-01-01T22:21:59.441Z,10.80
2023-01-01T22:25:24.809Z,10.77
2023-01-01T22:28:40.537Z,10.27
2023-01-01T22:31:32.082Z,10.20
2023-01-01T22:34:21.985Z,10.20
2023-01-01T22:37:28.739Z,10.77
2023-01-01T22:40:21.764Z,11.10
2023-01-01T22:43:16.807Z,10.00
2023-01-01T22:46:18.262Z,10.67
2023-01-01T22:49:42.564Z,9.03
2023-01-01T22:52:29.782Z,9.63
2023-01-01T22:55:17.357Z,9.20
2023-01-01T22:58:04.822Z,8.27
2023-01-01T23:00:51.787Z,8.47
2023-01-01T23:03:38.783Z,7.90
2023-01-01T23:06:26.059Z,8.57
2023-01-01T23:09:13.313Z,8.80
2023-01-01T23:12:00.289Z,8.60
2023-01-01T23:15:05.901Z,9.40
2023-01-01T23:17:52.921Z,7.70
2023-01-01T23:20:39.857Z,8.83
2023-01-01T23:23:28.861Z,8.93
2023-01-01T23:26:16.436Z,8.90
2023-01-01T23:29:04.010Z,7.37
2023-01-01T23:31:51.038Z,7.60
2023-01-01T23:34:38.240Z,8.87
2023-01-01T23:37:26.897Z,9.33
2023-01-01T23:40:13.883Z,8.37
2023-01-01T23:43:01.872Z,9.30
2023-01-01T23:45:49.270Z,9.63
2023-01-01T23:48:36.233Z,8.63
2023-01-01T23:51:23.324Z,8.53
2023-01-01T23:54:10.330Z,8.77
2023-01-01T23:56:57.264Z,8.93
2023-01-01T23:59:44.212Z,9.53
